createdAt,value
2018-02-20T00:00:17.992Z,42.00
2018-02-20T00:01:17.962Z,42.60
2018-02-20T00:02:17.931Z,41.20
2018-02-20T00:03:17.902Z,39.40
2018-02-20T00:04:17.869Z,40.20
2018-02-20T00:05:17.843Z,39.60
2018-02-20T00:06:17.812Z,39.90
2018-02-20T00:07:17.780Z,39.00
2018-02-20T00:08:17.752Z,41.50
2018-02-20T00:09:17.722Z,41.20
2018-02-20T00:10:17.688Z,39.80
2018-02-20T00:11:17.659Z,40.80
2018-02-20T00:12:17.630Z,43.80
2018-02-20T00:13:17.599Z,41.10
2018-02-20T00:14:17.569Z,41.60
2018-02-20T00:15:17.589Z,42.10
2018-02-20T00:16:17.512Z,39.90
2018-02-20T00:17:17.485Z,40.20
2018-02-20T00:18:17.443Z,38.10
2018-02-20T00:19:17.421Z,40.60
2018-02-20T00:20:17.386Z,39.10
2018-02-20T00:21:17.357Z,38.60
2018-02-20T00:22:17.327Z,38.20
2018-02-20T00:23:17.299Z,36.10
2018-02-20T00:24:17.261Z,35.80
2018-02-20T00:25:17.240Z,35.70
2018-02-20T00:26:17.205Z,35.50
2018-02-20T00:27:17.175Z,34.50
2018-02-20T00:28:17.148Z,33.90
2018-02-20T00:29:17.112Z,33.10
2018-02-20T00:30:17.086Z,35.70
2018-02-20T00:31:17.058Z,36.50
2018-02-20T00:32:17.026Z,35.50
2018-02-20T00:33:16.996Z,35.80
2018-02-20T00:34:16.965Z,35.30
2018-02-20T00:35:16.933Z,36.60
2018-02-20T00:36:16.905Z,40.20
2018-02-20T00:37:16.877Z,41.20
2018-02-20T00:38:16.847Z,40.60
2018-02-20T00:39:16.815Z,40.60
2018-02-20T00:40:16.781Z,38.20
2018-02-20T00:41:16.754Z,38.00
2018-02-20T00:42:16.722Z,38.90
2018-02-20T00:43:16.693Z,38.70
2018-02-20T00:44:16.665Z,37.60
2018-02-20T00:45:16.636Z,38.70
2018-02-20T00:46:16.605Z,41.30
2018-02-20T00:47:16.576Z,45.60
2018-02-20T00:48:16.543Z,42.10
2018-02-20T00:49:16.518Z,44.10
2018-02-20T00:50:16.481Z,44.80
2018-02-20T00:51:16.450Z,45.00
2018-02-20T00:52:16.424Z,44.20
2018-02-20T00:53:16.392Z,42.40
2018-02-20T00:54:16.359Z,44.50
2018-02-20T00:55:16.331Z,43.60
2018-02-20T00:56:16.302Z,43.50
2018-02-20T00:57:16.272Z,42.20
2018-02-20T00:58:16.247Z,41.10
2018-02-20T00:59:16.215Z,43.00
2018-02-20T01:00:16.176Z,40.50
2018-02-20T01:01:16.151Z,41.60
2018-02-20T01:02:16.121Z,41.60
2018-02-20T01:03:16.086Z,40.10
2018-02-20T01:04:16.059Z,42.30
2018-02-20T01:05:16.027Z,41.80
2018-02-20T01:06:15.999Z,42.60
2018-02-20T01:07:15.967Z,40.40
2018-02-20T01:08:15.936Z,40.20
2018-02-20T01:09:15.912Z,39.00
2018-02-20T01:10:15.870Z,41.30
2018-02-20T01:11:15.852Z,40.20
2018-02-20T01:12:15.831Z,40.70
2018-02-20T01:13:15.784Z,42.10
2018-02-20T01:14:15.757Z,42.70
2018-02-20T01:15:15.725Z,45.50
2018-02-20T01:16:15.696Z,46.10
2018-02-20T01:17:15.666Z,46.20
2018-02-20T01:18:15.633Z,46.80
2018-02-20T01:19:15.603Z,48.60
2018-02-20T01:20:15.576Z,47.60
2018-02-20T01:21:15.539Z,47.90
2018-02-20T01:22:15.512Z,46.60
2018-02-20T01:23:15.482Z,46.60
2018-02-20T01:24:15.456Z,45.00
2018-02-20T01:25:15.420Z,46.10
2018-02-20T01:26:15.390Z,45.90
2018-02-20T01:27:15.359Z,46.80
2018-02-20T01:28:15.331Z,46.70
2018-02-20T01:29:15.298Z,45.60
2018-02-20T01:30:15.268Z,45.00
2018-02-20T01:31:15.238Z,47.50
2018-02-20T01:32:15.210Z,46.90
2018-02-20T01:33:15.178Z,46.30
2018-02-20T01:34:15.145Z,45.60
2018-02-20T01:35:15.121Z,45.00
2018-02-20T01:36:15.083Z,43.90
2018-02-20T01:37:15.056Z,47.50
2018-02-20T01:38:15.028Z,47.30
2018-02-20T01:39:14.990Z,48.50
2018-02-20T01:40:14.964Z,47.80
2018-02-20T01:41:14.933Z,46.80
2018-02-20T01:42:14.903Z,47.80
2018-02-20T01:43:14.870Z,47.80
2018-02-20T01:44:14.842Z,48.20
2018-02-20T01:45:14.810Z,52.20
2018-02-20T01:46:14.780Z,52.20
2018-02-20T01:47:14.751Z,49.70
2018-02-20T01:48:14.720Z,49.10
2018-02-20T01:49:14.692Z,49.30
2018-02-20T01:50:14.659Z,47.50
2018-02-20T01:51:14.627Z,46.70
2018-02-20T01:52:14.598Z,45.70
2018-02-20T01:53:14.565Z,45.40
2018-02-20T01:54:14.534Z,44.60
2018-02-20T01:55:14.509Z,47.10
2018-02-20T01:56:14.488Z,47.60
2018-02-20T01:57:14.444Z,47.10
2018-02-20T01:58:14.412Z,45.20
2018-02-20T01:59:14.380Z,46.10
2018-02-20T02:00:14.353Z,44.20
2018-02-20T02:01:14.321Z,46.40
2018-02-20T02:02:14.291Z,46.40
2018-02-20T02:03:14.260Z,46.20
2018-02-20T02:04:14.227Z,44.00
2018-02-20T02:05:14.200Z,45.00
2018-02-20T02:06:14.167Z,45.10
2018-02-20T02:07:14.139Z,44.50
2018-02-20T02:08:14.109Z,43.00
2018-02-20T02:09:14.077Z,44.00
2018-02-20T02:10:14.045Z,42.50
2018-02-20T02:11:14.017Z,43.30
2018-02-20T02:12:13.990Z,43.20
2018-02-20T02:13:13.953Z,41.60
2018-02-20T02:14:13.924Z,43.90
2018-02-20T02:15:13.888Z,43.30
2018-02-20T02:16:13.860Z,42.60
2018-02-20T02:17:13.832Z,42.80
2018-02-20T02:18:13.799Z,43.50
2018-02-20T02:19:13.772Z,41.90
2018-02-20T02:20:13.740Z,45.00
2018-02-20T02:21:13.710Z,42.60
2018-02-20T02:22:13.678Z,44.80
2018-02-20T02:23:13.644Z,43.70
2018-02-20T02:24:13.618Z,43.20
2018-02-20T02:25:13.587Z,41.70
2018-02-20T02:26:13.554Z,40.60
2018-02-20T02:27:13.524Z,41.50
2018-02-20T02:28:13.507Z,39.00
2018-02-20T02:29:13.481Z,41.20
2018-02-20T02:30:13.438Z,42.40
2018-02-20T02:31:13.420Z,42.50
2018-02-20T02:32:13.391Z,42.70
2018-02-20T02:33:13.344Z,40.30
2018-02-20T02:34:13.316Z,42.30
2018-02-20T02:35:13.285Z,39.70
2018-02-20T02:36:13.278Z,40.90
2018-02-20T02:37:13.229Z,39.50
2018-02-20T02:38:13.192Z,42.10
2018-02-20T02:39:13.164Z,41.30
2018-02-20T02:40:13.131Z,43.30
2018-02-20T02:41:13.104Z,42.10
2018-02-20T02:42:13.069Z,42.90
2018-02-20T02:43:13.036Z,43.30
2018-02-20T02:44:13.021Z,44.50
2018-02-20T02:45:12.978Z,44.60
2018-02-20T02:46:12.958Z,45.80
2018-02-20T02:47:12.928Z,43.90
2018-02-20T02:48:12.895Z,43.60
2018-02-20T02:49:12.856Z,44.40
2018-02-20T02:50:12.833Z,43.90
2018-02-20T02:51:12.806Z,43.40
2018-02-20T02:52:12.761Z,43.80
2018-02-20T02:53:12.741Z,42.10
2018-02-20T02:54:12.714Z,41.90
2018-02-20T02:55:12.682Z,42.50
2018-02-20T02:56:12.650Z,44.00
2018-02-20T02:57:12.609Z,44.10
2018-02-20T02:58:12.589Z,42.10
2018-02-20T02:59:12.559Z,45.60
2018-02-20T03:00:12.515Z,45.60
2018-02-20T03:01:12.553Z,46.40
2018-02-20T03:02:12.467Z,46.30
2018-02-20T03:03:12.426Z,44.80
2018-02-20T03:04:12.403Z,45.70
2018-02-20T03:05:12.372Z,44.70
2018-02-20T03:06:12.336Z,47.10
2018-02-20T03:07:12.324Z,47.30
2018-02-20T03:08:12.269Z,47.50
2018-02-20T03:09:12.262Z,47.70
2018-02-20T03:10:12.205Z,47.00
2018-02-20T03:11:12.189Z,48.00
2018-02-20T03:12:12.146Z,45.90
2018-02-20T03:13:12.113Z,47.20
2018-02-20T03:14:12.096Z,47.20
2018-02-20T03:15:12.054Z,47.40
2018-02-20T03:16:12.032Z,45.60
2018-02-20T03:17:12.002Z,47.00
2018-02-20T03:18:11.973Z,46.40
2018-02-20T03:19:11.931Z,47.10
2018-02-20T03:20:11.921Z,46.90
2018-02-20T03:21:11.880Z,47.00
2018-02-20T03:22:11.837Z,48.00
2018-02-20T03:23:11.808Z,49.00
2018-02-20T03:24:11.788Z,47.20
2018-02-20T03:25:11.754Z,49.60
2018-02-20T03:26:11.714Z,46.20
2018-02-20T03:27:11.692Z,47.20
2018-02-20T03:28:11.650Z,47.40
2018-02-20T03:29:11.623Z,49.20
2018-02-20T03:30:11.589Z,48.20
2018-02-20T03:31:11.571Z,46.80
2018-02-20T03:32:11.527Z,46.40
2018-02-20T03:33:11.509Z,46.60
2018-02-20T03:34:11.476Z,47.40
2018-02-20T03:35:11.447Z,45.30
2018-02-20T03:36:11.414Z,45.60
2018-02-20T03:37:11.385Z,46.40
2018-02-20T03:38:11.354Z,47.00
2018-02-20T03:39:11.311Z,46.00
2018-02-20T03:40:11.294Z,45.70
2018-02-20T03:41:11.249Z,44.30
2018-02-20T03:42:11.216Z,45.90
2018-02-20T03:43:11.201Z,45.70
2018-02-20T03:44:11.167Z,45.30
2018-02-20T03:45:11.132Z,45.70
2018-02-20T03:46:11.096Z,45.20
2018-02-20T03:47:11.067Z,45.20
2018-02-20T03:48:11.045Z,43.60
2018-02-20T03:49:11.018Z,44.90
2018-02-20T03:50:10.971Z,43.50
2018-02-20T03:51:10.938Z,44.10
2018-02-20T03:52:10.908Z,44.30
2018-02-20T03:53:10.883Z,45.60
2018-02-20T03:54:10.847Z,48.00
2018-02-20T03:55:10.816Z,49.30
2018-02-20T03:56:10.799Z,49.40
2018-02-20T03:57:10.766Z,45.50
2018-02-20T03:58:10.722Z,47.30
2018-02-20T03:59:10.691Z,48.20
2018-02-20T04:00:10.673Z,45.00
2018-02-20T04:01:10.643Z,43.70
2018-02-20T04:02:10.597Z,47.20
2018-02-20T04:03:10.578Z,46.00
2018-02-20T04:04:10.535Z,46.10
2018-02-20T04:05:10.517Z,46.10
2018-02-20T04:06:10.474Z,44.00
2018-02-20T04:07:10.458Z,43.40
2018-02-20T04:08:10.433Z,45.40
2018-02-20T04:09:10.386Z,43.60
2018-02-20T04:10:10.367Z,43.10
2018-02-20T04:11:10.321Z,44.10
2018-02-20T04:12:10.300Z,43.30
2018-02-20T04:13:10.270Z,44.90
2018-02-20T04:14:10.239Z,43.00
2018-02-20T04:15:10.213Z,44.00
2018-02-20T04:16:10.166Z,45.80
2018-02-20T04:17:10.133Z,44.10
2018-02-20T04:18:10.115Z,43.20
2018-02-20T04:19:10.072Z,41.30
2018-02-20T04:20:10.044Z,44.70
2018-02-20T04:21:10.011Z,46.30
2018-02-20T04:22:09.980Z,47.80
2018-02-20T04:23:09.949Z,45.00
2018-02-20T04:24:09.917Z,44.30
2018-02-20T04:25:09.887Z,45.20
2018-02-20T04:26:09.856Z,47.90
2018-02-20T04:27:09.824Z,46.90
2018-02-20T04:28:09.793Z,46.40
2018-02-20T04:29:09.779Z,48.00
2018-02-20T04:30:09.733Z,45.40
2018-02-20T04:31:09.712Z,43.80
2018-02-20T04:32:09.680Z,42.10
2018-02-20T04:33:09.637Z,43.50
2018-02-20T04:34:09.608Z,44.30
2018-02-20T04:35:09.590Z,40.80
2018-02-20T04:36:09.557Z,42.60
2018-02-20T04:37:09.533Z,41.10
2018-02-20T04:38:09.496Z,41.50
2018-02-20T04:39:09.456Z,41.70
2018-02-20T04:40:09.425Z,41.90
2018-02-20T04:41:09.391Z,40.70
2018-02-20T04:42:09.361Z,41.20
2018-02-20T04:43:09.365Z,41.00
2018-02-20T04:44:09.299Z,41.70
2018-02-20T04:45:09.268Z,41.80
2018-02-20T04:46:09.249Z,39.10
2018-02-20T04:47:09.218Z,40.90
2018-02-20T04:48:09.180Z,40.40
2018-02-20T04:49:09.145Z,40.90
2018-02-20T04:50:09.127Z,40.70
2018-02-20T04:51:09.081Z,40.00
2018-02-20T04:52:09.052Z,38.90
2018-02-20T04:53:09.036Z,38.80
2018-02-20T04:54:09.002Z,38.20
2018-02-20T04:55:08.961Z,36.90
2018-02-20T04:56:08.933Z,38.40
2018-02-20T04:57:08.898Z,37.00
2018-02-20T04:58:08.868Z,36.40
2018-02-20T04:59:08.846Z,37.10
2018-02-20T05:00:08.804Z,37.30
2018-02-20T05:01:08.816Z,38.00
2018-02-20T05:02:08.753Z,36.80
2018-02-20T05:03:08.711Z,37.70
2018-02-20T05:04:08.696Z,38.60
2018-02-20T05:05:08.650Z,36.40
2018-02-20T05:06:08.629Z,39.20
2018-02-20T05:07:08.591Z,37.90
2018-02-20T05:08:08.557Z,37.60
2018-02-20T05:09:08.525Z,39.00
2018-02-20T05:10:08.498Z,41.50
2018-02-20T05:11:08.466Z,40.50
2018-02-20T05:12:08.432Z,40.10
2018-02-20T05:13:08.401Z,41.40
2018-02-20T05:14:08.380Z,41.30
2018-02-20T05:15:08.337Z,41.40
2018-02-20T05:16:08.320Z,40.50
2018-02-20T05:17:08.274Z,39.60
2018-02-20T05:18:08.245Z,43.40
2018-02-20T05:19:08.225Z,39.80
2018-02-20T05:20:08.182Z,39.80
2018-02-20T05:21:08.163Z,41.10
2018-02-20T05:22:08.135Z,42.70
2018-02-20T05:23:08.089Z,44.50
2018-02-20T05:24:08.069Z,43.40
2018-02-20T05:25:08.030Z,43.80
2018-02-20T05:26:08.007Z,44.10
2018-02-20T05:27:07.977Z,46.20
2018-02-20T05:28:07.951Z,45.30
2018-02-20T05:29:07.901Z,45.40
2018-02-20T05:30:07.872Z,48.20
2018-02-20T05:31:07.838Z,48.30
2018-02-20T05:32:07.810Z,48.10
2018-02-20T05:33:07.791Z,48.20
2018-02-20T05:34:07.760Z,48.50
2018-02-20T05:35:07.715Z,47.40
2018-02-20T05:36:07.698Z,48.60
2018-02-20T05:37:07.652Z,50.30
2018-02-20T05:38:07.621Z,48.80
2018-02-20T05:39:07.594Z,48.40
2018-02-20T05:40:07.562Z,49.70
2018-02-20T05:41:07.540Z,48.00
2018-02-20T05:42:07.497Z,48.00
2018-02-20T05:43:07.467Z,45.60
2018-02-20T05:44:07.434Z,46.50
2018-02-20T05:45:07.404Z,48.90
2018-02-20T05:46:07.372Z,46.70
2018-02-20T05:47:07.343Z,47.70
2018-02-20T05:48:07.313Z,47.10
2018-02-20T05:49:07.291Z,50.40
2018-02-20T05:50:07.246Z,47.40
2018-02-20T05:51:07.229Z,49.20
2018-02-20T05:52:07.198Z,48.40
2018-02-20T05:53:07.155Z,49.20
2018-02-20T05:54:07.123Z,49.70
2018-02-20T05:55:07.097Z,46.80
2018-02-20T05:56:07.059Z,46.70
2018-02-20T05:57:07.041Z,48.10
2018-02-20T05:58:07.019Z,47.30
2018-02-20T05:59:06.969Z,50.90
2018-02-20T06:00:06.940Z,51.20
2018-02-20T06:01:06.902Z,51.40
2018-02-20T06:02:06.873Z,49.70
2018-02-20T06:03:06.860Z,50.10
2018-02-20T06:04:06.814Z,50.10
2018-02-20T06:05:06.783Z,49.30
2018-02-20T06:06:06.752Z,47.30
2018-02-20T06:07:06.719Z,46.70
2018-02-20T06:08:06.689Z,46.40
2018-02-20T06:09:06.659Z,49.30
2018-02-20T06:10:06.627Z,47.50
2018-02-20T06:11:06.595Z,48.00
2018-02-20T06:12:06.565Z,50.60
2018-02-20T06:13:06.532Z,48.90
2018-02-20T06:14:06.501Z,50.50
2018-02-20T06:15:06.509Z,50.10
2018-02-20T06:16:06.441Z,50.40
2018-02-20T06:17:06.419Z,48.80
2018-02-20T06:18:06.389Z,48.00
2018-02-20T06:19:06.361Z,50.20
2018-02-20T06:20:06.313Z,45.30
2018-02-20T06:21:06.294Z,47.30
2018-02-20T06:22:06.255Z,50.20
2018-02-20T06:23:06.278Z,47.50
2018-02-20T06:24:06.192Z,46.60
2018-02-20T06:25:06.159Z,46.70
2018-02-20T06:26:06.139Z,50.30
2018-02-20T06:27:06.113Z,48.30
2018-02-20T06:28:06.066Z,50.80
2018-02-20T06:29:06.035Z,50.50
2018-02-20T06:30:06.017Z,50.80
2018-02-20T06:31:05.971Z,48.90
2018-02-20T06:32:05.944Z,48.90
2018-02-20T06:33:05.912Z,45.40
2018-02-20T06:34:05.890Z,46.40
2018-02-20T06:35:05.871Z,46.40
2018-02-20T06:36:05.819Z,49.00
2018-02-20T06:37:05.784Z,46.90
2018-02-20T06:38:05.754Z,44.20
2018-02-20T06:39:05.734Z,45.80
2018-02-20T06:40:05.700Z,51.60
2018-02-20T06:41:05.662Z,50.00
2018-02-20T06:42:05.641Z,48.30
2018-02-20T06:43:05.598Z,46.60
2018-02-20T06:44:05.581Z,44.20
2018-02-20T06:45:05.538Z,44.30
2018-02-20T06:46:05.513Z,45.40
2018-02-20T06:47:05.491Z,46.60
2018-02-20T06:48:05.455Z,45.10
2018-02-20T06:49:05.414Z,44.70
2018-02-20T06:50:05.382Z,47.20
2018-02-20T06:51:05.358Z,44.80
2018-02-20T06:52:05.335Z,43.60
2018-02-20T06:53:05.293Z,44.30
2018-02-20T06:54:05.259Z,44.90
2018-02-20T06:55:05.228Z,43.00
2018-02-20T06:56:05.210Z,44.90
2018-02-20T06:57:05.163Z,45.20
2018-02-20T06:58:05.133Z,45.10
2018-02-20T06:59:05.103Z,46.20
2018-02-20T07:00:05.071Z,46.50
2018-02-20T07:01:05.040Z,44.90
2018-02-20T07:02:05.011Z,45.80
2018-02-20T07:03:04.990Z,44.40
2018-02-20T07:04:04.951Z,42.30
2018-02-20T07:05:04.916Z,41.80
2018-02-20T07:06:04.886Z,41.80
2018-02-20T07:07:04.855Z,42.30
2018-02-20T07:08:04.825Z,41.80
2018-02-20T07:09:04.794Z,41.70
2018-02-20T07:10:04.763Z,41.10
2018-02-20T07:11:04.729Z,41.10
2018-02-20T07:12:04.721Z,43.50
2018-02-20T07:13:04.682Z,40.10
2018-02-20T07:14:04.649Z,42.40
2018-02-20T07:15:04.607Z,42.30
2018-02-20T07:16:04.592Z,42.30
2018-02-20T07:17:04.556Z,43.10
2018-02-20T07:18:04.514Z,42.40
2018-02-20T07:19:04.491Z,39.90
2018-02-20T07:20:04.466Z,40.60
2018-02-20T07:21:04.423Z,40.80
2018-02-20T07:22:04.404Z,41.40
2018-02-20T07:23:04.366Z,40.30
2018-02-20T07:24:04.352Z,40.10
2018-02-20T07:25:04.299Z,42.00
2018-02-20T07:26:04.287Z,42.50
2018-02-20T07:27:04.236Z,42.30
2018-02-20T07:28:04.206Z,41.60
2018-02-20T07:29:04.186Z,42.10
2018-02-20T07:30:04.144Z,40.20
2018-02-20T07:31:04.126Z,41.90
2018-02-20T07:32:04.089Z,40.70
2018-02-20T07:33:04.051Z,41.10
2018-02-20T07:34:04.019Z,38.80
2018-02-20T07:35:04.005Z,38.80
2018-02-20T07:36:03.959Z,39.60
2018-02-20T07:37:03.930Z,39.90
2018-02-20T07:38:03.900Z,42.10
2018-02-20T07:39:03.870Z,40.20
2018-02-20T07:40:03.836Z,40.70
2018-02-20T07:41:03.807Z,38.80
2018-02-20T07:42:03.776Z,41.30
2018-02-20T07:43:03.751Z,40.50
2018-02-20T07:44:03.714Z,40.90
2018-02-20T07:45:03.687Z,42.30
2018-02-20T07:46:03.672Z,42.70
2018-02-20T07:47:03.636Z,42.90
2018-02-20T07:48:03.593Z,41.70
2018-02-20T07:49:03.562Z,43.10
2018-02-20T07:50:03.542Z,43.70
2018-02-20T07:51:03.513Z,42.00
2018-02-20T07:52:03.472Z,41.80
2018-02-20T07:53:03.447Z,42.80
2018-02-20T07:54:03.409Z,41.80
2018-02-20T07:55:03.380Z,41.80
2018-02-20T07:56:03.349Z,41.60
2018-02-20T07:57:03.335Z,43.10
2018-02-20T07:58:03.289Z,45.20
2018-02-20T07:59:03.260Z,44.40
2018-02-20T08:00:03.241Z,43.20
2018-02-20T08:01:03.211Z,43.00
2018-02-20T08:02:03.180Z,45.00
2018-02-20T08:03:03.139Z,44.10
2018-02-20T08:04:03.120Z,46.20
2018-02-20T08:05:03.077Z,43.30
2018-02-20T08:06:03.047Z,43.90
2018-02-20T08:07:03.029Z,41.70
2018-02-20T08:08:03.000Z,45.20
2018-02-20T08:09:02.988Z,43.70
2018-02-20T08:10:02.944Z,41.80
2018-02-20T08:11:02.908Z,44.60
2018-02-20T08:12:02.867Z,43.60
2018-02-20T08:13:02.837Z,41.40
2018-02-20T08:14:02.817Z,41.10
2018-02-20T08:15:02.776Z,42.10
2018-02-20T08:16:02.760Z,41.90
2018-02-20T08:17:02.726Z,41.20
2018-02-20T08:18:02.701Z,41.80
2018-02-20T08:19:02.667Z,42.70
2018-02-20T08:20:02.654Z,43.00
2018-02-20T08:21:02.596Z,42.60
2018-02-20T08:22:02.590Z,43.70
2018-02-20T08:23:02.551Z,43.10
2018-02-20T08:24:02.512Z,44.70
2018-02-20T08:25:02.482Z,42.60
2018-02-20T08:26:02.464Z,41.00
2018-02-20T08:27:02.432Z,41.10
2018-02-20T08:28:02.393Z,43.00
2018-02-20T08:29:02.360Z,39.30
2018-02-20T08:30:02.333Z,39.70
2018-02-20T08:31:02.315Z,40.10
2018-02-20T08:32:02.272Z,38.80
2018-02-20T08:33:02.254Z,37.70
2018-02-20T08:34:02.218Z,39.10
2018-02-20T08:35:02.195Z,37.80
2018-02-20T08:36:02.159Z,39.20
2018-02-20T08:37:02.136Z,37.40
2018-02-20T08:38:02.101Z,38.00
2018-02-20T08:39:02.067Z,38.70
2018-02-20T08:40:02.040Z,37.50
2018-02-20T08:41:02.012Z,38.50
2018-02-20T08:42:01.980Z,37.50
2018-02-20T08:43:01.976Z,38.20
2018-02-20T08:44:01.933Z,36.60
2018-02-20T08:45:01.896Z,39.50
2018-02-20T08:46:01.877Z,36.30
2018-02-20T08:47:01.837Z,35.70
2018-02-20T08:48:01.817Z,38.10
2018-02-20T08:49:01.789Z,35.30
2018-02-20T08:50:01.762Z,35.40
2018-02-20T08:51:01.720Z,33.50
2018-02-20T08:52:01.689Z,34.60
2018-02-20T08:53:01.659Z,34.90
2018-02-20T08:54:01.631Z,35.90
2018-02-20T08:55:01.614Z,34.50
2018-02-20T08:56:01.575Z,33.90
2018-02-20T08:57:01.555Z,36.40
2018-02-20T08:58:01.532Z,34.70
2018-02-20T08:59:01.492Z,36.10
2018-02-20T09:00:01.462Z,34.20
2018-02-20T09:01:01.440Z,37.00
2018-02-20T09:02:01.401Z,36.00
2018-02-20T09:03:01.386Z,34.80
2018-02-20T09:04:01.346Z,35.40
2018-02-20T09:05:01.315Z,33.50
2018-02-20T09:06:01.286Z,35.30
2018-02-20T09:07:01.271Z,34.00
2018-02-20T09:08:01.232Z,36.30
2018-02-20T09:09:01.211Z,36.10
2018-02-20T09:10:01.184Z,33.20
2018-02-20T09:11:01.156Z,32.10
2018-02-20T09:12:01.126Z,35.40
2018-02-20T09:13:01.091Z,34.20
2018-02-20T09:14:01.063Z,33.40
2018-02-20T09:15:01.032Z,34.00
2018-02-20T09:16:01.003Z,33.20
2018-02-20T09:17:00.999Z,33.10
2018-02-20T09:18:00.949Z,33.60
2018-02-20T09:19:00.920Z,33.10
2018-02-20T09:20:00.893Z,32.90
2018-02-20T09:21:00.864Z,33.30
2018-02-20T09:22:00.832Z,33.20
2018-02-20T09:23:00.805Z,32.70
2018-02-20T09:24:00.788Z,31.80
2018-02-20T09:25:00.762Z,35.40
2018-02-20T09:26:00.725Z,33.60
2018-02-20T09:27:00.705Z,32.00
2018-02-20T09:28:00.669Z,32.10
2018-02-20T09:29:00.636Z,29.90
2018-02-20T09:30:00.613Z,31.10
2018-02-20T09:31:00.580Z,31.90
2018-02-20T09:32:00.565Z,30.50
2018-02-20T09:33:00.530Z,31.30
2018-02-20T09:34:00.529Z,30.70
2018-02-20T09:35:00.490Z,29.70
2018-02-20T09:36:00.442Z,31.80
2018-02-20T09:37:00.415Z,31.10
2018-02-20T09:38:00.433Z,29.90
2018-02-20T09:39:00.371Z,28.70
2018-02-20T09:40:00.340Z,31.20
2018-02-20T09:41:00.305Z,33.10
2018-02-20T09:42:00.304Z,31.30
2018-02-20T09:43:00.262Z,30.10
2018-02-20T09:44:00.222Z,30.80
2018-02-20T09:45:00.197Z,28.90
2018-02-20T09:46:00.174Z,29.70
2018-02-20T09:47:00.147Z,30.40
2018-02-20T09:48:00.130Z,30.10
2018-02-20T09:49:00.093Z,31.80
2018-02-20T09:50:00.065Z,32.00
2018-02-20T09:51:00.039Z,27.80
2018-02-20T09:52:00.026Z,28.90
2018-02-20T09:52:59.986Z,28.60
2018-02-20T09:53:59.966Z,27.10
2018-02-20T09:54:59.936Z,25.90
2018-02-20T09:55:59.928Z,26.90
2018-02-20T09:56:59.897Z,25.90
2018-02-20T09:57:59.874Z,27.80
2018-02-20T09:58:59.850Z,26.20
2018-02-20T09:59:59.816Z,25.50
2018-02-20T10:00:59.789Z,26.80
2018-02-20T10:01:59.766Z,25.40
2018-02-20T10:02:59.744Z,25.50
2018-02-20T10:03:59.732Z,26.10
2018-02-20T10:04:59.708Z,25.60
2018-02-20T10:05:59.686Z,26.00
2018-02-20T10:06:59.666Z,25.50
2018-02-20T10:07:59.681Z,25.80
2018-02-20T10:08:59.618Z,23.70
2018-02-20T10:09:59.587Z,25.30
2018-02-20T10:10:59.575Z,25.00
2018-02-20T10:11:59.557Z,26.10
2018-02-20T10:12:59.521Z,25.60
2018-02-20T10:13:59.510Z,23.60
2018-02-20T10:14:59.490Z,26.10
2018-02-20T10:15:59.475Z,25.70
2018-02-20T10:16:59.437Z,26.90
2018-02-20T10:17:59.416Z,26.10
2018-02-20T10:18:59.397Z,25.60
2018-02-20T10:19:59.386Z,26.10
2018-02-20T10:20:59.372Z,25.50
2018-02-20T10:21:59.344Z,27.10
2018-02-20T10:22:59.320Z,26.30
2018-02-20T10:23:59.293Z,26.80
2018-02-20T10:24:59.284Z,27.80
2018-02-20T10:25:59.280Z,26.70
2018-02-20T10:26:59.233Z,27.70
2018-02-20T10:27:59.217Z,26.20
2018-02-20T10:28:59.199Z,26.40
2018-02-20T10:29:59.178Z,26.20
2018-02-20T10:30:59.158Z,28.40
2018-02-20T10:31:59.159Z,25.60
2018-02-20T10:32:59.120Z,25.00
2018-02-20T10:33:59.104Z,24.30
2018-02-20T10:34:59.098Z,25.80
2018-02-20T10:35:59.069Z,24.30
2018-02-20T10:36:59.059Z,25.40
2018-02-20T10:37:59.041Z,23.10
2018-02-20T10:38:59.011Z,23.30
2018-02-20T10:39:58.994Z,25.00
2018-02-20T10:40:58.975Z,24.10
2018-02-20T10:41:58.969Z,23.40
2018-02-20T10:42:58.958Z,23.70
2018-02-20T10:43:58.923Z,22.90
2018-02-20T10:44:58.906Z,23.40
2018-02-20T10:45:58.900Z,23.70
2018-02-20T10:46:58.884Z,24.00
2018-02-20T10:47:58.859Z,22.80
2018-02-20T10:48:58.839Z,22.40
2018-02-20T10:49:58.851Z,23.40
2018-02-20T10:50:58.803Z,23.30
2018-02-20T10:51:58.789Z,24.40
2018-02-20T10:52:58.785Z,23.20
2018-02-20T10:53:58.753Z,22.90
2018-02-20T10:54:58.738Z,23.70
2018-02-20T10:55:58.718Z,22.90
2018-02-20T10:56:58.710Z,24.30
2018-02-20T10:57:58.693Z,23.10
2018-02-20T10:58:58.672Z,24.50
2018-02-20T10:59:58.644Z,24.40
2018-02-20T11:00:58.624Z,22.70
2018-02-20T11:01:58.619Z,23.20
2018-02-20T11:02:58.599Z,25.00
2018-02-20T11:03:58.567Z,23.70
2018-02-20T11:04:58.559Z,24.20
2018-02-20T11:05:58.542Z,23.20
2018-02-20T11:06:58.512Z,24.10
2018-02-20T11:07:58.493Z,22.60
2018-02-20T11:08:58.471Z,24.40
2018-02-20T11:09:58.453Z,23.80
2018-02-20T11:10:58.434Z,24.70
2018-02-20T11:11:58.450Z,23.10
2018-02-20T11:12:58.405Z,24.70
2018-02-20T11:13:58.386Z,24.30
2018-02-20T11:14:58.369Z,22.90
2018-02-20T11:15:58.337Z,24.10
2018-02-20T11:16:58.329Z,25.90
2018-02-20T11:17:58.296Z,25.60
2018-02-20T11:18:58.276Z,25.10
2018-02-20T11:19:58.275Z,24.20
2018-02-20T11:20:58.235Z,25.00
2018-02-20T11:21:58.231Z,24.00
2018-02-20T11:22:58.213Z,24.80
2018-02-20T11:23:58.193Z,23.80
2018-02-20T11:24:58.173Z,25.80
2018-02-20T11:25:58.141Z,25.20
2018-02-20T11:26:58.140Z,24.90
2018-02-20T11:27:58.107Z,24.80
2018-02-20T11:28:58.087Z,24.60
2018-02-20T11:29:58.080Z,24.00
2018-02-20T11:30:58.063Z,24.60
2018-02-20T11:31:58.043Z,26.00
2018-02-20T11:32:58.025Z,23.90
2018-02-20T11:33:57.995Z,26.00
2018-02-20T11:34:57.995Z,24.50
2018-02-20T11:35:57.971Z,23.80
2018-02-20T11:36:57.943Z,22.60
2018-02-20T11:37:57.922Z,24.00
2018-02-20T11:38:57.919Z,22.80
2018-02-20T11:39:57.891Z,24.10
2018-02-20T11:40:57.874Z,23.40
2018-02-20T11:41:57.865Z,23.70
2018-02-20T11:42:57.835Z,22.90
2018-02-20T11:43:57.817Z,24.90
2018-02-20T11:44:57.798Z,23.00
2018-02-20T11:45:57.791Z,23.30
2018-02-20T11:46:57.775Z,22.70
2018-02-20T11:47:57.757Z,23.20
2018-02-20T11:48:57.729Z,22.10
2018-02-20T11:49:57.721Z,22.70
2018-02-20T11:50:57.694Z,21.70
2018-02-20T11:51:57.683Z,22.30
2018-02-20T11:52:57.653Z,21.40
2018-02-20T11:53:57.651Z,23.20
2018-02-20T11:54:57.619Z,22.30
2018-02-20T11:55:57.600Z,22.30
2018-02-20T11:56:57.581Z,21.80
2018-02-20T11:57:57.560Z,20.40
2018-02-20T11:58:57.555Z,22.00
2018-02-20T11:59:57.538Z,22.20
2018-02-20T12:00:57.518Z,21.80
2018-02-20T12:01:57.500Z,21.50
2018-02-20T12:02:57.481Z,21.90
2018-02-20T12:03:57.455Z,21.00
2018-02-20T12:04:57.451Z,20.40
2018-02-20T12:05:57.416Z,21.70
2018-02-20T12:06:57.397Z,19.80
2018-02-20T12:07:57.382Z,21.20
2018-02-20T12:08:57.373Z,20.80
2018-02-20T12:09:57.344Z,21.00
2018-02-20T12:10:57.337Z,21.10
2018-02-20T12:11:57.310Z,22.10
2018-02-20T12:12:57.289Z,21.20
2018-02-20T12:13:57.291Z,20.00
2018-02-20T12:14:57.251Z,20.90
2018-02-20T12:15:57.235Z,22.10
2018-02-20T12:16:57.219Z,21.40
2018-02-20T12:17:57.198Z,23.30
2018-02-20T12:18:57.192Z,21.20
2018-02-20T12:19:57.164Z,21.90
2018-02-20T12:20:57.157Z,21.90
2018-02-20T12:21:57.142Z,25.90
2018-02-20T12:22:57.121Z,24.80
2018-02-20T12:23:57.093Z,22.80
2018-02-20T12:24:57.086Z,21.10
2018-02-20T12:25:57.069Z,20.30
2018-02-20T12:26:57.039Z,21.30
2018-02-20T12:27:57.025Z,20.40
2018-02-20T12:28:57.006Z,21.20
2018-02-20T12:29:57.000Z,19.60
2018-02-20T12:30:56.971Z,21.40
2018-02-20T12:31:56.958Z,19.70
2018-02-20T12:32:56.973Z,19.50
2018-02-20T12:33:56.938Z,20.00
2018-02-20T12:34:56.916Z,20.00
2018-02-20T12:35:56.891Z,21.30
2018-02-20T12:36:56.875Z,20.30
2018-02-20T12:37:56.855Z,21.10
2018-02-20T12:38:56.852Z,20.20
2018-02-20T12:39:56.845Z,21.20
2018-02-20T12:40:56.822Z,22.20
2018-02-20T12:41:56.803Z,20.90
2018-02-20T12:42:56.787Z,22.60
2018-02-20T12:43:56.784Z,21.80
2018-02-20T12:44:56.746Z,22.40
2018-02-20T12:45:56.739Z,21.20
2018-02-20T12:46:56.709Z,22.00
2018-02-20T12:47:56.694Z,21.70
2018-02-20T12:48:56.678Z,21.30
2018-02-20T12:49:56.672Z,23.00
2018-02-20T12:50:56.646Z,21.00
2018-02-20T12:51:56.639Z,21.60